Time;durP1;ratioP1;P1;durP2;ratioP2;P2;SDS_P1;SDS_P2;PMS_P1;PMS_P2;Temp;Humidity;BMP_temperature;BMP_pressure;BME280_temperature;BME280_humidity;BME280_pressure;Samples;Min_cycle;Max_cycle;Signal;HPM_P1;HPM_P2
2021/08/22 02:39:37;;;;;;;11.60;8.67;;;;;;;;;;5014917;28;20225;-83
2021/08/22 02:42:44;;;;;;;8.23;7.37;;;;;;;;;;4992249;28;20197;-86
2021/08/22 02:45:48;;;;;;;9.47;7.03;;;;;;;;;;4989608;28;20216;-86
2021/08/22 02:48:52;;;;;;;10.57;9.47;;;;;;;;;;4973080;28;20194;-86
2021/08/22 02:51:57;;;;;;;10.30;9.17;;;;;;;;;;4950333;28;20544;-86
2021/08/22 02:55:01;;;;;;;12.67;9.10;;;;;;;;;;4961741;28;20586;-85
2021/08/22 02:58:05;;;;;;;12.70;8.20;;;;;;;;;;4961285;28;20190;-85
2021/08/22 03:01:09;;;;;;;10.97;9.27;;;;;;;;;;5000448;28;20944;-86
2021/08/22 03:04:13;;;;;;;15.57;9.53;;;;;;;;;;4993762;28;20202;-86
2021/08/22 03:07:17;;;;;;;11.33;9.20;;;;;;;;;;4996241;28;20205;-87
2021/08/22 03:10:22;;;;;;;10.00;7.93;;;;;;;;;;4964466;28;20191;-87
2021/08/22 03:13:26;;;;;;;10.77;9.50;;;;;;;;;;4954463;28;20662;-87
2021/08/22 03:16:32;;;;;;;9.23;8.23;;;;;;;;;;4976788;28;20719;-87
2021/08/22 03:19:35;;;;;;;10.13;7.53;;;;;;;;;;5002653;28;20194;-86
2021/08/22 03:22:41;;;;;;;7.30;6.37;;;;;;;;;;4977764;28;20178;-86
2021/08/22 03:25:45;;;;;;;8.30;5.77;;;;;;;;;;4993552;28;20268;-87
2021/08/22 03:28:49;;;;;;;7.10;5.83;;;;;;;;;;4992315;28;20190;-83
2021/08/22 03:31:53;;;;;;;8.17;5.53;;;;;;;;;;5013181;28;20181;-83
2021/08/22 03:34:58;;;;;;;7.80;5.63;;;;;;;;;;4972718;28;20222;-83
2021/08/22 03:38:02;;;;;;;9.37;5.73;;;;;;;;;;5003305;28;20209;-83
2021/08/22 03:41:06;;;;;;;5.73;5.20;;;;;;;;;;5011178;28;20201;-84
2021/08/22 03:44:10;;;;;;;5.70;4.93;;;;;;;;;;4983882;28;20178;-83
2021/08/22 03:47:14;;;;;;;7.27;5.43;;;;;;;;;;5007601;28;20201;-83
2021/08/22 03:50:18;;;;;;;9.07;5.30;;;;;;;;;;4996509;28;20186;-83
2021/08/22 03:53:22;;;;;;;7.37;5.60;;;;;;;;;;4964416;28;20182;-83
2021/08/22 03:56:26;;;;;;;10.47;5.50;;;;;;;;;;4977716;28;20677;-83
2021/08/22 03:59:30;;;;;;;7.73;5.17;;;;;;;;;;4972194;28;20185;-83
2021/08/22 04:02:35;;;;;;;4.30;3.90;;;;;;;;;;4983186;28;20182;-83
2021/08/22 04:06:06;;;;;;;6.03;4.03;;;;;;;;;;4989175;28;20209;-83
2021/08/22 04:09:12;;;;;;;7.37;4.40;;;;;;;;;;4976199;28;20182;-83
2021/08/22 04:12:16;;;;;;;7.80;4.53;;;;;;;;;;4994507;28;20186;-83
2021/08/22 04:15:20;;;;;;;4.97;4.00;;;;;;;;;;5002347;28;20549;-83
2021/08/22 04:18:25;;;;;;;5.97;4.17;;;;;;;;;;4998451;28;20182;-83
2021/08/22 04:21:29;;;;;;;6.63;4.90;;;;;;;;;;4975895;28;20209;-84
2021/08/22 04:24:36;;;;;;;7.90;4.80;;;;;;;;;;4987613;28;20226;-82
2021/08/22 04:27:41;;;;;;;9.43;4.20;;;;;;;;;;4975438;28;20205;-83
2021/08/22 04:30:46;;;;;;;7.30;4.67;;;;;;;;;;4999726;28;20201;-82
2021/08/22 04:33:49;;;;;;;6.20;4.00;;;;;;;;;;5017469;28;20521;-82
2021/08/22 04:36:54;;;;;;;8.57;3.63;;;;;;;;;;5001513;28;20201;-82
2021/08/22 04:39:59;;;;;;;7.30;4.30;;;;;;;;;;5001868;28;20189;-82
2021/08/22 04:43:03;;;;;;;7.33;4.27;;;;;;;;;;4998235;28;20206;-82
2021/08/22 04:46:07;;;;;;;7.47;4.17;;;;;;;;;;4995356;28;20221;-82
2021/08/22 04:49:11;;;;;;;4.30;3.83;;;;;;;;;;5017084;28;20189;-82
2021/08/22 04:52:15;;;;;;;4.60;3.90;;;;;;;;;;4955556;28;20183;-82
2021/08/22 04:55:20;;;;;;;5.80;4.30;;;;;;;;;;4989936;28;20217;-82
2021/08/22 04:58:24;;;;;;;5.40;3.87;;;;;;;;;;4997083;28;20186;-82
2021/08/22 05:01:28;;;;;;;3.57;3.20;;;;;;;;;;4985704;28;20214;-82
2021/08/22 05:04:32;;;;;;;9.80;4.10;;;;;;;;;;4994589;28;20225;-82
2021/08/22 05:07:36;;;;;;;4.83;3.63;;;;;;;;;;4967916;28;20197;-82
2021/08/22 05:10:40;;;;;;;4.80;3.83;;;;;;;;;;4985079;28;20183;-82
2021/08/22 05:13:45;;;;;;;8.33;3.90;;;;;;;;;;4954328;28;20175;-82
2021/08/22 05:16:49;;;;;;;4.97;4.07;;;;;;;;;;5005385;28;20197;-82
2021/08/22 05:19:53;;;;;;;5.47;4.30;;;;;;;;;;5005755;28;20189;-82
2021/08/22 05:22:57;;;;;;;6.10;4.43;;;;;;;;;;4986779;28;20182;-82
2021/08/22 05:26:02;;;;;;;4.47;3.87;;;;;;;;;;4981046;28;20229;-82
2021/08/22 05:29:05;;;;;;;4.70;4.00;;;;;;;;;;4994650;28;20181;-82
2021/08/22 05:32:10;;;;;;;4.13;3.50;;;;;;;;;;5002965;28;20194;-82
2021/08/22 05:35:13;;;;;;;9.40;4.37;;;;;;;;;;4986481;28;20563;-82
2021/08/22 05:38:18;;;;;;;6.20;4.37;;;;;;;;;;4997081;28;20194;-82
2021/08/22 05:41:22;;;;;;;5.80;4.37;;;;;;;;;;4984629;28;20680;-82
2021/08/22 05:44:26;;;;;;;4.57;4.17;;;;;;;;;;4986514;28;20645;-82
2021/08/22 05:47:30;;;;;;;4.57;3.97;;;;;;;;;;5004351;28;20201;-82
2021/08/22 05:50:34;;;;;;;4.93;3.93;;;;;;;;;;5008938;28;20514;-82
2021/08/22 05:53:41;;;;;;;4.67;4.10;;;;;;;;;;4990592;28;20641;-82
2021/08/22 05:56:45;;;;;;;4.73;4.23;;;;;;;;;;4973820;28;20206;-84
2021/08/22 05:59:49;;;;;;;4.80;3.70;;;;;;;;;;4973803;28;20539;-83
2021/08/22 06:02:54;;;;;;;6.53;4.40;;;;;;;;;;4991724;28;20191;-84
2021/08/22 06:05:58;;;;;;;5.70;4.00;;;;;;;;;;5004056;23;20224;-77
2021/08/22 06:09:02;;;;;;;5.60;4.33;;;;;;;;;;5016196;28;20189;-76
2021/08/22 06:12:07;;;;;;;4.70;4.10;;;;;;;;;;5033867;28;20216;-76
2021/08/22 06:15:11;;;;;;;7.63;4.37;;;;;;;;;;5012226;28;20184;-76
2021/08/22 06:18:16;;;;;;;4.10;3.67;;;;;;;;;;5021486;28;20194;-76
2021/08/22 06:21:21;;;;;;;4.30;3.90;;;;;;;;;;5022423;28;20550;-76
2021/08/22 06:24:26;;;;;;;4.63;3.90;;;;;;;;;;5011018;28;20193;-76
2021/08/22 06:27:29;;;;;;;7.30;3.97;;;;;;;;;;5026141;28;20193;-76
2021/08/22 06:30:34;;;;;;;4.97;3.93;;;;;;;;;;5030779;28;20221;-76
2021/08/22 06:33:38;;;;;;;4.53;3.67;;;;;;;;;;5014111;28;20181;-76
2021/08/22 06:36:42;;;;;;;4.40;3.70;;;;;;;;;;5022288;28;20204;-76
2021/08/22 06:39:47;;;;;;;4.90;3.83;;;;;;;;;;5014039;28;20181;-76
2021/08/22 06:42:52;;;;;;;4.70;3.40;;;;;;;;;;5014766;28;20181;-76
2021/08/22 06:45:55;;;;;;;3.83;3.43;;;;;;;;;;5018774;28;20200;-76
2021/08/22 06:48:59;;;;;;;5.00;3.50;;;;;;;;;;5012319;28;20655;-76
2021/08/22 06:52:05;;;;;;;5.83;3.73;;;;;;;;;;5021128;28;20217;-76
2021/08/22 06:55:10;;;;;;;6.07;3.40;;;;;;;;;;5027324;28;20647;-76
2021/08/22 06:58:14;;;;;;;5.00;4.50;;;;;;;;;;5021847;28;20196;-75
2021/08/22 07:01:18;;;;;;;5.23;4.30;;;;;;;;;;5006560;28;20217;-76
2021/08/22 07:04:22;;;;;;;7.13;3.93;;;;;;;;;;5023230;28;20205;-75
2021/08/22 07:07:26;;;;;;;7.17;4.53;;;;;;;;;;5028343;28;20189;-75
2021/08/22 07:10:31;;;;;;;5.70;4.00;;;;;;;;;;5006206;28;20194;-77
2021/08/22 07:13:35;;;;;;;11.37;5.40;;;;;;;;;;5040815;28;20176;-76
2021/08/22 07:16:40;;;;;;;5.70;4.67;;;;;;;;;;5053304;28;20196;-76
2021/08/22 07:19:43;;;;;;;7.37;5.97;;;;;;;;;;5019556;28;20544;-76
2021/08/22 07:22:48;;;;;;;10.23;6.17;;;;;;;;;;5013565;28;20221;-76
2021/08/22 07:25:53;;;;;;;25.40;6.37;;;;;;;;;;5014355;28;20186;-76
2021/08/22 07:28:57;;;;;;;7.70;6.83;;;;;;;;;;5014435;28;20182;-76
2021/08/22 07:32:02;;;;;;;11.37;5.60;;;;;;;;;;5053408;28;20212;-76
2021/08/22 07:35:06;;;;;;;13.60;6.50;;;;;;;;;;5050516;28;20520;-77
2021/08/22 07:38:11;;;;;;;11.77;6.70;;;;;;;;;;5034339;28;20196;-76
2021/08/22 07:41:15;;;;;;;8.03;6.30;;;;;;;;;;5037963;28;20706;-76
2021/08/22 07:44:21;;;;;;;12.20;6.73;;;;;;;;;;5052175;28;20196;-76
2021/08/22 07:47:25;;;;;;;6.47;5.70;;;;;;;;;;5041122;28;20192;-76
2021/08/22 07:50:29;;;;;;;7.30;5.50;;;;;;;;;;5032674;28;20176;-76
2021/08/22 07:53:35;;;;;;;5.80;5.10;;;;;;;;;;5032881;28;20663;-76
2021/08/22 07:56:43;;;;;;;8.57;5.67;;;;;;;;;;5034086;28;20180;-76
2021/08/22 07:59:47;;;;;;;5.27;4.70;;;;;;;;;;5034149;28;20196;-77
2021/08/22 08:02:52;;;;;;;7.60;4.73;;;;;;;;;;5053078;28;20564;-77
2021/08/22 08:05:56;;;;;;;7.33;4.63;;;;;;;;;;5040892;28;20208;-76
2021/08/22 08:09:01;;;;;;;8.03;5.03;;;;;;;;;;5053584;28;20180;-77
2021/08/22 08:12:06;;;;;;;6.03;4.07;;;;;;;;;;5035734;28;20221;-76
2021/08/22 08:15:11;;;;;;;4.60;4.17;;;;;;;;;;5038954;28;20188;-77
2021/08/22 08:18:15;;;;;;;6.13;4.50;;;;;;;;;;5040946;28;20524;-76
2021/08/22 08:21:19;;;;;;;8.83;4.50;;;;;;;;;;5012748;28;20221;-76
2021/08/22 08:24:24;;;;;;;4.77;4.27;;;;;;;;;;5012743;28;20177;-76
2021/08/22 08:27:28;;;;;;;5.37;3.67;;;;;;;;;;5012715;28;20182;-76
2021/08/22 08:30:32;;;;;;;5.20;4.10;;;;;;;;;;5012699;28;20523;-77
2021/08/22 08:33:36;;;;;;;5.30;4.10;;;;;;;;;;5052515;28;20173;-76
2021/08/22 08:36:40;;;;;;;5.83;3.60;;;;;;;;;;5052547;28;20184;-76
2021/08/22 08:39:45;;;;;;;4.33;3.43;;;;;;;;;;5052728;28;20181;-76
2021/08/22 08:42:57;;;;;;;4.30;3.67;;;;;;;;;;5005062;28;20688;-77
2021/08/22 08:46:46;;;;;;;4.43;3.60;;;;;;;;;;5025467;28;20529;-77
2021/08/22 08:50:02;;;;;;;5.33;3.67;;;;;;;;;;5015743;28;20182;-76
2021/08/22 08:53:08;;;;;;;5.43;3.93;;;;;;;;;;5017867;28;20534;-77
2021/08/22 08:56:19;;;;;;;5.77;3.97;;;;;;;;;;5040505;28;20196;-76
2021/08/22 08:59:23;;;;;;;7.20;4.13;;;;;;;;;;5042104;28;20198;-77
2021/08/22 09:02:28;;;;;;;4.77;3.40;;;;;;;;;;5035902;28;20217;-76
2021/08/22 09:06:11;;;;;;;5.27;3.90;;;;;;;;;;5024338;28;20207;-76
2021/08/22 09:09:31;;;;;;;4.97;3.57;;;;;;;;;;5032598;28;20190;-77
2021/08/22 09:13:00;;;;;;;4.73;3.93;;;;;;;;;;5022773;28;20222;-76
2021/08/22 09:16:51;;;;;;;3.77;3.27;;;;;;;;;;5016854;28;20193;-76
2021/08/22 09:19:55;;;;;;;3.93;3.30;;;;;;;;;;5022218;28;20195;-76
2021/08/22 09:23:34;;;;;;;5.17;3.67;;;;;;;;;;5036111;28;20663;-75
2021/08/22 09:27:16;;;;;;;4.37;3.17;;;;;;;;;;5027001;28;20196;-75
2021/08/22 09:30:45;;;;;;;4.73;3.80;;;;;;;;;;5035005;28;20181;-76
2021/08/22 09:34:27;;;;;;;4.57;3.40;;;;;;;;;;5029548;28;20185;-76
2021/08/22 09:38:19;;;;;;;3.67;3.37;;;;;;;;;;5014545;28;20540;-77
2021/08/22 09:41:45;;;;;;;3.33;2.83;;;;;;;;;;5024194;28;20235;-76
2021/08/22 09:45:23;;;;;;;5.37;3.23;;;;;;;;;;5032002;28;20187;-77
2021/08/22 09:49:07;;;;;;;5.30;3.40;;;;;;;;;;5015110;28;20192;-76
2021/08/22 09:52:39;;;;;;;9.73;3.70;;;;;;;;;;5006650;28;20574;-76
2021/08/22 09:56:11;;;;;;;3.60;3.10;;;;;;;;;;5019208;28;20192;-76
2021/08/22 09:59:44;;;;;;;4.13;3.30;;;;;;;;;;5031689;28;20567;-77
2021/08/22 10:03:13;;;;;;;4.53;3.07;;;;;;;;;;5023800;28;20204;-75
2021/08/22 10:06:36;;;;;;;3.70;3.20;;;;;;;;;;5028843;28;20216;-75
2021/08/22 10:09:55;;;;;;;3.93;3.53;;;;;;;;;;5018780;28;20190;-75
2021/08/22 10:12:59;;;;;;;3.77;3.10;;;;;;;;;;5024129;28;20204;-75
2021/08/22 10:16:03;;;;;;;4.03;3.23;;;;;;;;;;5020962;28;20668;-75
2021/08/22 10:19:09;;;;;;;3.50;3.07;;;;;;;;;;5011360;28;20520;-76
2021/08/22 10:22:18;;;;;;;4.33;3.40;;;;;;;;;;5011012;28;20252;-76
2021/08/22 10:26:01;;;;;;;6.37;3.17;;;;;;;;;;5011304;28;20194;-76
2021/08/22 10:29:09;;;;;;;4.10;3.43;;;;;;;;;;4992432;28;20679;-76
2021/08/22 10:32:14;;;;;;;5.20;2.90;;;;;;;;;;5006172;28;20223;-76
2021/08/22 10:35:19;;;;;;;4.20;3.13;;;;;;;;;;5043756;28;20185;-75
2021/08/22 10:38:24;;;;;;;6.60;3.47;;;;;;;;;;5016828;28;20197;-75
2021/08/22 10:41:35;;;;;;;4.27;3.60;;;;;;;;;;5002536;28;20215;-75
2021/08/22 10:44:40;;;;;;;4.73;2.90;;;;;;;;;;5029624;28;20198;-75
2021/08/22 10:47:45;;;;;;;3.70;3.40;;;;;;;;;;5048053;28;20724;-75
2021/08/22 10:51:07;;;;;;;4.93;3.03;;;;;;;;;;5030526;28;20700;-75
2021/08/22 10:54:16;;;;;;;3.80;3.40;;;;;;;;;;5030785;28;20180;-76
2021/08/22 10:57:43;;;;;;;5.90;3.63;;;;;;;;;;5030790;28;20198;-76
2021/08/22 11:00:47;;;;;;;4.33;3.27;;;;;;;;;;5028983;28;20224;-76
2021/08/22 11:04:01;;;;;;;3.77;3.23;;;;;;;;;;5024107;28;20214;-77
2021/08/22 11:07:07;;;;;;;7.67;3.60;;;;;;;;;;5010748;28;20202;-75
2021/08/22 11:10:12;;;;;;;4.00;3.20;;;;;;;;;;5047087;22;20226;-73
2021/08/22 11:13:16;;;;;;;10.87;3.50;;;;;;;;;;5033121;28;20645;-73
2021/08/22 11:16:20;;;;;;;4.20;3.20;;;;;;;;;;5023815;28;20202;-74
2021/08/22 11:19:24;;;;;;;6.13;3.40;;;;;;;;;;5014623;28;20191;-74
2021/08/22 11:22:29;;;;;;;3.80;3.33;;;;;;;;;;5035767;28;20222;-73
2021/08/22 11:25:34;;;;;;;4.20;3.50;;;;;;;;;;5050686;28;20199;-73
2021/08/22 11:28:38;;;;;;;5.37;3.97;;;;;;;;;;5033878;28;20188;-73
2021/08/22 11:31:43;;;;;;;5.93;3.53;;;;;;;;;;5028038;28;20230;-73
2021/08/22 11:34:49;;;;;;;4.27;3.50;;;;;;;;;;5020420;28;20765;-73
2021/08/22 11:37:54;;;;;;;3.77;3.37;;;;;;;;;;5010298;28;20213;-74
2021/08/22 11:41:03;;;;;;;4.30;3.70;;;;;;;;;;5015829;28;20223;-73
2021/08/22 11:44:08;;;;;;;5.87;4.00;;;;;;;;;;5046838;28;20208;-74
2021/08/22 11:47:12;;;;;;;4.53;3.80;;;;;;;;;;5029664;28;20205;-73
2021/08/22 11:50:20;;;;;;;4.90;3.47;;;;;;;;;;5015120;28;20194;-74
2021/08/22 11:53:29;;;;;;;4.30;3.60;;;;;;;;;;5016397;28;20637;-74
2021/08/22 11:56:33;;;;;;;3.93;3.40;;;;;;;;;;5020096;28;20202;-74
2021/08/22 11:59:37;;;;;;;4.10;3.50;;;;;;;;;;5009531;28;20183;-74
2021/08/22 12:02:56;;;;;;;3.97;3.57;;;;;;;;;;5028099;28;20683;-74
2021/08/22 12:06:07;;;;;;;4.83;3.80;;;;;;;;;;5019542;28;20198;-74
2021/08/22 12:09:20;;;;;;;3.97;3.40;;;;;;;;;;5016351;28;20581;-74
2021/08/22 12:12:24;;;;;;;7.45;3.60;;;;;;;;;;5009861;28;20221;-74
2021/08/22 12:15:30;;;;;;;5.35;3.47;;;;;;;;;;5025486;28;20187;-73
2021/08/22 12:18:34;;;;;;;4.90;3.47;;;;;;;;;;5029752;28;20639;-75
2021/08/22 12:21:38;;;;;;;3.90;3.40;;;;;;;;;;5012561;28;20221;-74
2021/08/22 12:24:48;;;;;;;5.50;3.58;;;;;;;;;;5017179;28;20199;-74
2021/08/22 12:27:53;;;;;;;7.05;3.40;;;;;;;;;;5017068;28;20532;-74
2021/08/22 12:31:08;;;;;;;4.13;3.22;;;;;;;;;;5016798;28;20576;-74
2021/08/22 12:34:16;;;;;;;4.13;3.20;;;;;;;;;;5021466;28;20187;-75
2021/08/22 12:37:21;;;;;;;4.55;3.50;;;;;;;;;;5036161;28;20184;-74
2021/08/22 12:40:25;;;;;;;4.00;3.20;;;;;;;;;;5044114;28;20190;-74
2021/08/22 12:43:29;;;;;;;5.50;3.58;;;;;;;;;;5017450;28;20223;-74
2021/08/22 12:46:34;;;;;;;5.38;3.38;;;;;;;;;;5022811;28;20188;-74
2021/08/22 12:49:38;;;;;;;4.43;3.33;;;;;;;;;;5035791;28;20184;-73
2021/08/22 12:52:43;;;;;;;3.33;3.03;;;;;;;;;;5036630;28;20188;-74
2021/08/22 12:55:47;;;;;;;4.47;3.65;;;;;;;;;;5020543;28;20206;-73
2021/08/22 12:58:53;;;;;;;4.13;3.30;;;;;;;;;;5035392;28;20173;-73
2021/08/22 13:01:58;;;;;;;7.55;3.60;;;;;;;;;;5035523;28;20216;-74
2021/08/22 13:05:02;;;;;;;4.70;3.33;;;;;;;;;;5021963;28;20190;-74
2021/08/22 13:08:06;;;;;;;3.67;3.20;;;;;;;;;;5007152;28;20536;-73
2021/08/22 13:11:10;;;;;;;4.70;3.40;;;;;;;;;;5016482;28;20224;-73
2021/08/22 13:14:15;;;;;;;5.53;3.30;;;;;;;;;;5016372;28;20185;-73
2021/08/22 13:17:19;;;;;;;3.83;3.17;;;;;;;;;;5035504;28;20194;-74
2021/08/22 13:20:23;;;;;;;4.97;3.43;;;;;;;;;;5036420;28;20179;-74
2021/08/22 13:23:29;;;;;;;3.40;3.10;;;;;;;;;;5016980;28;20207;-74
2021/08/22 13:26:33;;;;;;;4.70;3.40;;;;;;;;;;5027362;28;20194;-74
2021/08/22 13:29:37;;;;;;;3.43;2.70;;;;;;;;;;5020281;28;20183;-74
2021/08/22 13:32:41;;;;;;;4.10;3.30;;;;;;;;;;5024123;28;20205;-74
2021/08/22 13:35:46;;;;;;;4.93;3.80;;;;;;;;;;5016795;28;20633;-74
2021/08/22 13:38:50;;;;;;;9.30;3.07;;;;;;;;;;5015538;28;20204;-73
2021/08/22 13:41:55;;;;;;;14.53;4.80;;;;;;;;;;5016138;28;20700;-77
2021/08/22 13:44:59;;;;;;;12.70;5.57;;;;;;;;;;5023925;28;20673;-79
2021/08/22 13:48:04;;;;;;;9.63;3.50;;;;;;;;;;5012200;28;20644;-75
2021/08/22 13:51:12;;;;;;;10.43;3.87;;;;;;;;;;5014265;28;20220;-78
2021/08/22 13:54:16;;;;;;;7.47;2.97;;;;;;;;;;5017451;28;20185;-75
2021/08/22 13:57:20;;;;;;;5.23;2.90;;;;;;;;;;5016952;28;20185;-74
2021/08/22 14:00:24;;;;;;;8.73;2.70;;;;;;;;;;5031551;28;20295;-74
2021/08/22 14:03:29;;;;;;;4.30;3.03;;;;;;;;;;5019752;28;20209;-75
2021/08/22 14:06:33;;;;;;;6.73;3.27;;;;;;;;;;5030060;28;20188;-75
2021/08/22 14:09:37;;;;;;;8.43;3.40;;;;;;;;;;5035383;28;20505;-75
2021/08/22 14:12:42;;;;;;;5.50;3.73;;;;;;;;;;5028866;28;20196;-75
2021/08/22 14:15:46;;;;;;;6.07;3.70;;;;;;;;;;5019555;28;20538;-75
2021/08/22 14:18:53;;;;;;;4.90;3.77;;;;;;;;;;5015509;28;20177;-75
2021/08/22 14:21:59;;;;;;;4.73;3.67;;;;;;;;;;5017349;28;20220;-75
2021/08/22 14:25:06;;;;;;;6.27;4.47;;;;;;;;;;5031988;28;20569;-75
2021/08/22 14:28:10;;;;;;;6.77;4.00;;;;;;;;;;5028116;28;20189;-75
2021/08/22 14:31:14;;;;;;;5.83;4.03;;;;;;;;;;5033709;28;20220;-74
2021/08/22 14:34:18;;;;;;;7.13;4.30;;;;;;;;;;5015242;28;20178;-75
2021/08/22 14:37:23;;;;;;;4.83;4.07;;;;;;;;;;5014887;28;20186;-74
2021/08/22 14:40:27;;;;;;;6.97;4.23;;;;;;;;;;5015057;28;20193;-75
2021/08/22 14:43:31;;;;;;;5.97;3.67;;;;;;;;;;5032989;28;20208;-75
2021/08/22 14:46:35;;;;;;;6.83;4.13;;;;;;;;;;5033300;28;20177;-75
2021/08/22 14:49:39;;;;;;;5.33;3.70;;;;;;;;;;5034637;28;20624;-75
2021/08/22 14:52:44;;;;;;;5.70;3.77;;;;;;;;;;5020641;28;20644;-75
2021/08/22 14:55:48;;;;;;;6.40;3.83;;;;;;;;;;5048788;28;20185;-75
2021/08/22 14:58:53;;;;;;;6.43;4.10;;;;;;;;;;5047498;28;20184;-75
2021/08/22 15:01:58;;;;;;;4.90;3.90;;;;;;;;;;5030515;28;20691;-74
2021/08/22 15:05:03;;;;;;;6.33;4.17;;;;;;;;;;5013265;28;20213;-74
2021/08/22 15:08:07;;;;;;;6.57;4.10;;;;;;;;;;5013210;28;20648;-74
2021/08/22 15:11:12;;;;;;;4.93;3.73;;;;;;;;;;5014074;28;20561;-75
2021/08/22 15:14:16;;;;;;;6.83;4.10;;;;;;;;;;5013623;28;20173;-74
2021/08/22 15:17:20;;;;;;;5.93;4.30;;;;;;;;;;5020744;28;20193;-75
2021/08/22 15:20:24;;;;;;;4.83;4.00;;;;;;;;;;5013957;28;20201;-74
2021/08/22 15:23:30;;;;;;;8.50;4.40;;;;;;;;;;5020065;28;20221;-74
2021/08/22 15:26:36;;;;;;;10.20;4.47;;;;;;;;;;5020857;28;20192;-74
2021/08/22 15:29:40;;;;;;;6.53;3.87;;;;;;;;;;5022055;28;20180;-73
2021/08/22 15:32:17;;;;;;;6.73;4.10;;;;;;;;;;5014820;23;20256;-74
2021/08/22 15:35:23;;;;;;;5.30;4.20;;;;;;;;;;5013601;28;20177;-74
2021/08/22 15:38:27;;;;;;;8.23;4.67;;;;;;;;;;5013662;28;20177;-74
2021/08/22 15:41:34;;;;;;;5.10;4.37;;;;;;;;;;4981417;28;20216;-75
2021/08/22 15:44:38;;;;;;;6.20;4.37;;;;;;;;;;5012143;28;20201;-74
2021/08/22 15:47:42;;;;;;;6.57;4.30;;;;;;;;;;5003819;28;20185;-74
2021/08/22 15:50:46;;;;;;;8.93;4.40;;;;;;;;;;5003800;28;20552;-75
2021/08/22 15:53:51;;;;;;;6.53;4.20;;;;;;;;;;5013572;28;20197;-76
2021/08/22 15:56:56;;;;;;;6.47;4.37;;;;;;;;;;5007201;28;20664;-75
2021/08/22 16:00:05;;;;;;;5.33;4.00;;;;;;;;;;4985851;28;20190;-75
2021/08/22 16:03:10;;;;;;;6.70;4.23;;;;;;;;;;5005199;28;20189;-75
2021/08/22 16:06:14;;;;;;;6.40;4.23;;;;;;;;;;5010917;28;20197;-75
2021/08/22 16:09:19;;;;;;;7.47;5.50;;;;;;;;;;5017424;28;20181;-74
2021/08/22 16:12:23;;;;;;;6.23;5.10;;;;;;;;;;5010975;28;20218;-75
2021/08/22 16:15:28;;;;;;;7.30;4.17;;;;;;;;;;5011241;28;20181;-75
2021/08/22 16:18:32;;;;;;;7.37;4.60;;;;;;;;;;5013016;28;20545;-75
2021/08/22 16:21:36;;;;;;;8.50;4.90;;;;;;;;;;5015357;28;20216;-75
2021/08/22 16:24:40;;;;;;;7.53;4.27;;;;;;;;;;4996570;28;20680;-75
2021/08/22 16:27:44;;;;;;;5.77;4.40;;;;;;;;;;4998843;28;20190;-75
2021/08/22 16:30:49;;;;;;;7.93;4.67;;;;;;;;;;4997604;28;20229;-74
2021/08/22 16:33:53;;;;;;;6.63;4.70;;;;;;;;;;4997920;28;20502;-75
2021/08/22 16:36:57;;;;;;;7.97;5.00;;;;;;;;;;5000910;28;20186;-75
2021/08/22 16:40:02;;;;;;;9.23;5.00;;;;;;;;;;4997266;28;20178;-75
2021/08/22 16:43:06;;;;;;;9.13;4.60;;;;;;;;;;5012707;28;20554;-74
2021/08/22 16:46:10;;;;;;;7.60;4.97;;;;;;;;;;5015674;28;20185;-74
2021/08/22 16:49:14;;;;;;;6.43;4.73;;;;;;;;;;5016699;28;20533;-74
2021/08/22 16:52:18;;;;;;;6.17;5.10;;;;;;;;;;5015095;28;20217;-74
2021/08/22 16:55:22;;;;;;;9.90;5.43;;;;;;;;;;4998021;28;20201;-74
2021/08/22 16:58:26;;;;;;;6.37;4.47;;;;;;;;;;5015466;28;20197;-74
2021/08/22 17:01:30;;;;;;;9.00;4.77;;;;;;;;;;5016482;28;20221;-74
2021/08/22 17:04:34;;;;;;;6.77;4.73;;;;;;;;;;5016241;28;20213;-74
2021/08/22 17:07:38;;;;;;;10.13;5.53;;;;;;;;;;5013594;28;20197;-73
2021/08/22 17:10:44;;;;;;;6.27;5.60;;;;;;;;;;5029654;23;20584;-77
2021/08/22 17:13:48;;;;;;;8.73;5.97;;;;;;;;;;5016759;28;20201;-77
2021/08/22 17:16:52;;;;;;;19.83;6.57;;;;;;;;;;4982497;28;20193;-77
2021/08/22 17:19:57;;;;;;;6.83;5.87;;;;;;;;;;5013413;28;20194;-77
2021/08/22 17:23:03;;;;;;;8.60;6.07;;;;;;;;;;5002809;28;20197;-78
2021/08/22 17:26:08;;;;;;;7.70;5.70;;;;;;;;;;4997895;28;20198;-77
2021/08/22 17:29:12;;;;;;;9.40;6.10;;;;;;;;;;4996607;28;20186;-77
2021/08/22 17:32:16;;;;;;;7.63;5.50;;;;;;;;;;4996253;28;20218;-77
2021/08/22 17:35:20;;;;;;;9.20;6.00;;;;;;;;;;4985601;28;20178;-77
2021/08/22 17:38:24;;;;;;;9.30;6.30;;;;;;;;;;5007557;28;20202;-77
2021/08/22 17:41:29;;;;;;;8.03;5.70;;;;;;;;;;4985639;28;20217;-76
2021/08/22 17:44:33;;;;;;;5.80;5.20;;;;;;;;;;5012375;28;20221;-76
2021/08/22 17:47:38;;;;;;;9.27;6.00;;;;;;;;;;5006762;28;20201;-76
2021/08/22 17:50:42;;;;;;;8.30;5.73;;;;;;;;;;4997205;28;20229;-76
2021/08/22 17:53:46;;;;;;;6.30;5.03;;;;;;;;;;4995334;28;20182;-75
2021/08/22 17:56:50;;;;;;;7.27;5.50;;;;;;;;;;5006736;28;20205;-76
2021/08/22 17:59:54;;;;;;;8.73;5.10;;;;;;;;;;5008077;28;20213;-75
2021/08/22 18:02:59;;;;;;;6.40;4.77;;;;;;;;;;4996328;28;20182;-76
2021/08/22 18:06:03;;;;;;;6.80;5.00;;;;;;;;;;5012303;28;20213;-75
2021/08/22 18:09:07;;;;;;;7.17;5.20;;;;;;;;;;5014479;28;20182;-75
2021/08/22 18:12:13;;;;;;;5.73;5.13;;;;;;;;;;5013305;28;20232;-76
2021/08/22 18:15:17;;;;;;;6.40;5.13;;;;;;;;;;5009902;28;20189;-76
2021/08/22 18:18:21;;;;;;;12.93;5.40;;;;;;;;;;5005610;28;20185;-76
2021/08/22 18:21:25;;;;;;;6.23;5.10;;;;;;;;;;5003596;28;20217;-78
2021/08/22 18:24:29;;;;;;;9.93;5.10;;;;;;;;;;5011676;28;20209;-78
2021/08/22 18:27:34;;;;;;;7.13;5.03;;;;;;;;;;5019027;28;20205;-77
2021/08/22 18:30:37;;;;;;;7.70;5.00;;;;;;;;;;5017202;28;20216;-78
2021/08/22 18:33:42;;;;;;;9.00;4.90;;;;;;;;;;4991689;28;20205;-78
2021/08/22 18:36:46;;;;;;;8.77;5.60;;;;;;;;;;4996995;28;20182;-76
2021/08/22 18:39:51;;;;;;;7.57;5.10;;;;;;;;;;4994598;28;20190;-76
2021/08/22 18:42:55;;;;;;;4.80;4.10;;;;;;;;;;5000928;28;20197;-75
2021/08/22 18:45:59;;;;;;;6.00;4.10;;;;;;;;;;5005638;28;20213;-75
2021/08/22 18:49:04;;;;;;;6.70;4.10;;;;;;;;;;4994038;28;20553;-74
2021/08/22 18:52:08;;;;;;;4.10;2.43;;;;;;;;;;4998060;28;20221;-73
2021/08/22 18:55:12;;;;;;;3.40;2.57;;;;;;;;;;5001120;28;20185;-74
2021/08/22 18:58:16;;;;;;;6.17;2.03;;;;;;;;;;4993792;28;20206;-75
2021/08/22 19:01:21;;;;;;;2.30;1.83;;;;;;;;;;4994545;28;20225;-75
2021/08/22 19:04:25;;;;;;;2.80;1.43;;;;;;;;;;4997291;28;20628;-75
2021/08/22 19:07:29;;;;;;;2.17;1.33;;;;;;;;;;5014598;28;20643;-78
2021/08/22 19:10:34;;;;;;;2.07;1.73;;;;;;;;;;5012511;28;20529;-78
2021/08/22 19:13:38;;;;;;;5.10;1.57;;;;;;;;;;4997644;28;20629;-77
2021/08/22 19:16:42;;;;;;;3.40;1.60;;;;;;;;;;4994556;28;20186;-76
2021/08/22 19:19:46;;;;;;;2.87;1.43;;;;;;;;;;4994683;28;20186;-76
2021/08/22 19:22:50;;;;;;;1.87;1.50;;;;;;;;;;5011609;28;20201;-76
2021/08/22 19:25:54;;;;;;;5.28;2.00;;;;;;;;;;4987384;28;20741;-73
2021/08/22 19:28:59;;;;;;;3.20;1.43;;;;;;;;;;4994396;28;20629;-73
2021/08/22 19:32:04;;;;;;;2.20;1.60;;;;;;;;;;4998334;28;20225;-73
2021/08/22 19:35:08;;;;;;;7.43;1.50;;;;;;;;;;5002516;28;20197;-77
2021/08/22 19:38:12;;;;;;;1.60;1.30;;;;;;;;;;4993854;28;20186;-76
2021/08/22 19:41:16;;;;;;;1.50;1.40;;;;;;;;;;5011868;28;20224;-76
2021/08/22 19:44:21;;;;;;;4.27;1.50;;;;;;;;;;5010439;28;20209;-77
2021/08/22 19:47:26;;;;;;;6.17;1.53;;;;;;;;;;5011157;28;20529;-75
2021/08/22 19:50:30;;;;;;;2.80;1.63;;;;;;;;;;5000273;28;20205;-77
2021/08/22 19:53:36;;;;;;;4.23;1.87;;;;;;;;;;5010043;28;20201;-76
2021/08/22 19:56:41;;;;;;;5.13;1.57;;;;;;;;;;5004785;28;20185;-76
2021/08/22 19:59:45;;;;;;;2.10;1.47;;;;;;;;;;5001097;28;20190;-75
2021/08/22 20:02:54;;;;;;;3.20;1.40;;;;;;;;;;5003158;28;20205;-75
2021/08/22 20:05:58;;;;;;;2.63;1.43;;;;;;;;;;4998417;28;20218;-75
2021/08/22 20:09:02;;;;;;;2.60;1.60;;;;;;;;;;4999070;28;20189;-77
2021/08/22 20:12:08;;;;;;;1.97;1.27;;;;;;;;;;5006542;28;20240;-77
2021/08/22 20:15:15;;;;;;;3.13;1.13;;;;;;;;;;5001462;28;20649;-77
2021/08/22 20:18:19;;;;;;;5.47;1.50;;;;;;;;;;5000491;28;20518;-76
2021/08/22 20:21:23;;;;;;;3.77;1.50;;;;;;;;;;5005417;28;20221;-76
2021/08/22 20:24:27;;;;;;;4.50;1.60;;;;;;;;;;4990104;28;20182;-76
2021/08/22 20:27:31;;;;;;;1.67;0.93;;;;;;;;;;4991709;28;20198;-76
2021/08/22 20:30:36;;;;;;;7.00;1.47;;;;;;;;;;4979303;28;20222;-76
2021/08/22 20:33:40;;;;;;;2.10;1.27;;;;;;;;;;5009044;28;20308;-76
2021/08/22 20:36:44;;;;;;;2.10;1.20;;;;;;;;;;4996266;28;20648;-76
2021/08/22 20:39:49;;;;;;;1.83;1.23;;;;;;;;;;5009144;28;20188;-76
2021/08/22 20:42:53;;;;;;;1.90;1.27;;;;;;;;;;5027896;28;20284;-76
2021/08/22 20:45:58;;;;;;;2.90;1.23;;;;;;;;;;5012258;28;20217;-76
2021/08/22 20:49:02;;;;;;;4.80;1.53;;;;;;;;;;5012140;28;20182;-76
2021/08/22 20:52:06;;;;;;;2.87;1.37;;;;;;;;;;5012346;28;20213;-76
2021/08/22 20:55:11;;;;;;;1.77;1.40;;;;;;;;;;5014189;28;20185;-76
2021/08/22 20:58:15;;;;;;;9.40;1.53;;;;;;;;;;5015730;28;20197;-76
2021/08/22 21:01:19;;;;;;;6.67;1.50;;;;;;;;;;4997648;28;20225;-76
2021/08/22 21:04:23;;;;;;;4.10;1.30;;;;;;;;;;5004367;28;20185;-76
2021/08/22 21:07:27;;;;;;;3.17;1.33;;;;;;;;;;5015551;28;20186;-76
2021/08/22 21:10:31;;;;;;;3.17;1.23;;;;;;;;;;5015314;28;20686;-76
2021/08/22 21:13:37;;;;;;;2.10;1.40;;;;;;;;;;5013089;28;20174;-76
2021/08/22 21:16:41;;;;;;;2.87;1.50;;;;;;;;;;4984659;28;20186;-76